Time;durP1;ratioP1;P1;durP2;ratioP2;P2;SDS_P1;SDS_P2;PMS_P1;PMS_P2;Temp;Humidity;BMP_temperature;BMP_pressure;BME280_temperature;BME280_humidity;BME280_pressure;Samples;Min_cycle;Max_cycle;Signal;HPM_P1;HPM_P2
2023/01/08 00:00:19;;;;;;;47.33;18.17;;;6.90;99.90;;;;;;5070829;28;20254;-60
2023/01/08 00:02:48;;;;;;;55.57;20.60;;;6.80;99.90;;;;;;5069403;28;20259;-60
2023/01/08 00:05:15;;;;;;;39.70;16.33;;;6.90;99.90;;;;;;5069164;28;20197;-60
2023/01/08 00:07:43;;;;;;;39.37;16.13;;;6.90;99.90;;;;;;5068060;28;20193;-60
2023/01/08 00:10:10;;;;;;;26.00;11.90;;;6.90;99.90;;;;;;5067878;28;20659;-61
2023/01/08 00:12:37;;;;;;;34.60;14.80;;;6.90;99.90;;;;;;5065942;28;20192;-61
2023/01/08 00:15:07;;;;;;;30.17;12.63;;;6.90;99.90;;;;;;5067910;28;20200;-61
2023/01/08 00:17:34;;;;;;;31.30;13.50;;;6.90;99.90;;;;;;5064944;28;20208;-61
2023/01/08 00:20:01;;;;;;;36.03;16.10;;;7.00;99.90;;;;;;5068234;28;20224;-61
2023/01/08 00:22:28;;;;;;;33.60;14.13;;;7.00;99.90;;;;;;5065221;28;20271;-61
2023/01/08 00:24:55;;;;;;;31.67;13.63;;;7.00;99.90;;;;;;5065840;28;20193;-61
2023/01/08 00:27:22;;;;;;;24.93;11.57;;;7.00;99.90;;;;;;5067487;28;20194;-61
2023/01/08 00:29:49;;;;;;;40.63;15.70;;;7.00;99.90;;;;;;5062835;28;20288;-59
2023/01/08 00:32:18;;;;;;;43.07;16.70;;;7.00;99.90;;;;;;5064261;28;20190;-60
2023/01/08 00:34:45;;;;;;;41.00;17.43;;;7.00;99.90;;;;;;5065224;28;20656;-60
2023/01/08 00:37:12;;;;;;;47.13;19.30;;;7.00;99.90;;;;;;5065730;28;20198;-60
2023/01/08 00:39:39;;;;;;;55.10;20.40;;;7.00;99.90;;;;;;5065448;28;20200;-60
2023/01/08 00:42:06;;;;;;;50.10;19.90;;;7.00;99.90;;;;;;5066009;28;20197;-61
2023/01/08 00:44:33;;;;;;;57.20;21.03;;;7.00;99.90;;;;;;5067097;28;20197;-61
2023/01/08 00:47:01;;;;;;;50.07;21.10;;;7.00;99.90;;;;;;5065460;28;20203;-61
2023/01/08 00:49:29;;;;;;;53.43;21.27;;;7.00;99.90;;;;;;5063618;28;20219;-61
2023/01/08 00:51:57;;;;;;;61.63;22.80;;;7.00;99.90;;;;;;5061109;28;20193;-61
2023/01/08 00:54:24;;;;;;;53.20;22.27;;;7.00;99.90;;;;;;5061183;28;20202;-61
2023/01/08 00:56:51;;;;;;;54.37;21.83;;;7.10;99.90;;;;;;5070021;28;20199;-61
2023/01/08 00:59:18;;;;;;;57.70;22.37;;;7.00;99.90;;;;;;5055292;28;20213;-61
2023/01/08 01:01:45;;;;;;;63.37;22.87;;;7.00;99.90;;;;;;5052081;28;20220;-62
2023/01/08 01:04:13;;;;;;;56.90;21.47;;;7.00;99.90;;;;;;5061789;28;20209;-61
2023/01/08 01:06:42;;;;;;;60.80;24.50;;;7.00;99.90;;;;;;5062699;28;20330;-62
2023/01/08 01:09:09;;;;;;;57.53;22.97;;;7.00;99.90;;;;;;5066342;28;20982;-61
2023/01/08 01:11:36;;;;;;;59.77;25.00;;;6.90;99.90;;;;;;5059926;28;20204;-61
2023/01/08 01:14:04;;;;;;;55.53;22.23;;;6.90;99.90;;;;;;5065800;28;20197;-60
2023/01/08 01:16:31;;;;;;;45.43;19.03;;;6.90;99.90;;;;;;5066916;28;20211;-61
2023/01/08 01:18:58;;;;;;;70.67;25.17;;;6.90;99.90;;;;;;5065430;28;20657;-61
2023/01/08 01:21:27;;;;;;;59.37;23.77;;;7.00;99.90;;;;;;5066827;28;20213;-61
2023/01/08 01:23:57;;;;;;;65.37;25.43;;;6.90;99.90;;;;;;5065952;28;20201;-60
2023/01/08 01:26:24;;;;;;;61.53;25.03;;;6.90;99.90;;;;;;5066650;28;20188;-62
2023/01/08 01:28:53;;;;;;;64.43;25.57;;;6.90;99.90;;;;;;5065523;28;20208;-61
2023/01/08 01:31:21;;;;;;;58.40;23.33;;;6.90;99.90;;;;;;5063362;28;20201;-61
2023/01/08 01:33:49;;;;;;;70.07;27.10;;;6.90;99.90;;;;;;5066998;28;20213;-62
2023/01/08 01:36:18;;;;;;;152.33;46.17;;;6.90;99.90;;;;;;5058938;28;20275;-62
2023/01/08 01:38:46;;;;;;;119.37;48.77;;;6.90;99.90;;;;;;5065164;28;20221;-61
2023/01/08 01:41:22;;;;;;;165.40;57.50;;;7.00;99.90;;;;;;5065180;28;20197;-62
2023/01/08 01:43:49;;;;;;;142.47;57.63;;;7.00;99.90;;;;;;5065721;28;20189;-62
2023/01/08 01:46:23;;;;;;;112.00;49.57;;;7.00;99.90;;;;;;5062409;28;20200;-62
2023/01/08 01:48:54;;;;;;;84.87;40.37;;;7.10;99.90;;;;;;5061625;28;20196;-62
2023/01/08 01:51:22;;;;;;;75.63;36.00;;;7.10;99.90;;;;;;5069129;28;20231;-61
2023/01/08 01:53:49;;;;;;;87.90;36.93;;;7.10;99.90;;;;;;5067850;28;20190;-62
2023/01/08 01:56:18;;;;;;;78.50;34.60;;;7.10;99.90;;;;;;5067819;28;20201;-62
2023/01/08 01:58:45;;;;;;;59.40;26.60;;;7.10;99.90;;;;;;5068696;28;20452;-62
2023/01/08 02:01:13;;;;;;;62.70;26.63;;;7.10;99.90;;;;;;5069464;28;20286;-61
2023/01/08 02:03:40;;;;;;;66.43;26.83;;;7.10;99.90;;;;;;5069873;28;20614;-62
2023/01/08 02:06:17;;;;;;;65.77;26.50;;;7.10;99.90;;;;;;5068884;28;20725;-61
2023/01/08 02:09:00;;;;;;;63.97;24.67;;;7.10;99.90;;;;;;5067439;28;20189;-61
2023/01/08 02:11:37;;;;;;;71.47;27.77;;;7.10;99.90;;;;;;5069659;28;20199;-61
2023/01/08 02:14:11;;;;;;;56.07;23.47;;;7.20;99.90;;;;;;5069560;28;20195;-61
2023/01/08 02:16:45;;;;;;;59.43;24.27;;;7.20;99.90;;;;;;5067868;28;20200;-61
2023/01/08 02:19:21;;;;;;;63.67;26.13;;;7.20;99.90;;;;;;5071143;28;20232;-61
2023/01/08 02:22:02;;;;;;;58.50;23.17;;;7.20;99.90;;;;;;5070067;28;20246;-61
2023/01/08 02:24:42;;;;;;;57.63;23.23;;;7.20;99.90;;;;;;5070011;28;20197;-61
2023/01/08 02:27:12;;;;;;;56.10;24.30;;;7.20;99.90;;;;;;5068072;28;20186;-61
2023/01/08 02:29:40;;;;;;;62.43;25.67;;;5.90;99.90;;;;;;5067844;28;20197;-61
2023/01/08 02:32:08;;;;;;;60.07;24.57;;;7.30;99.90;;;;;;5065589;28;20209;-61
2023/01/08 02:34:35;;;;;;;61.07;25.60;;;7.30;99.90;;;;;;5071116;28;20192;-61
2023/01/08 02:37:02;;;;;;;53.97;23.03;;;7.30;99.90;;;;;;5069109;28;20190;-61
2023/01/08 02:39:51;;;;;;;59.13;25.13;;;7.30;99.90;;;;;;5068605;28;20217;-61
2023/01/08 02:42:29;;;;;;;61.07;25.87;;;7.20;99.90;;;;;;5067493;28;20213;-62
2023/01/08 02:45:03;;;;;;;58.00;24.13;;;7.30;99.90;;;;;;5069210;28;20193;-61
2023/01/08 02:47:33;;;;;;;53.30;23.03;;;7.20;99.90;;;;;;5069375;28;20530;-61
2023/01/08 02:50:15;;;;;;;57.20;23.80;;;7.20;99.90;;;;;;5069069;28;20197;-61
2023/01/08 02:52:52;;;;;;;53.23;22.80;;;7.20;99.90;;;;;;5066253;28;20193;-61
2023/01/08 02:55:22;;;;;;;55.60;22.47;;;7.20;99.90;;;;;;5071988;28;20505;-61
2023/01/08 02:57:51;;;;;;;57.93;23.77;;;7.20;99.90;;;;;;5071392;28;20194;-61
2023/01/08 03:00:20;;;;;;;59.47;24.03;;;7.20;99.90;;;;;;5072084;28;20201;-61
2023/01/08 03:02:50;;;;;;;56.67;23.20;;;9.10;99.90;;;;;;5067933;28;20209;-61
2023/01/08 03:05:25;;;;;;;57.43;23.80;;;7.20;99.90;;;;;;5070200;28;20193;-61
2023/01/08 03:07:52;;;;;;;62.13;25.27;;;7.20;99.90;;;;;;5068517;28;20189;-61
2023/01/08 03:10:24;;;;;;;62.27;24.80;;;7.20;99.90;;;;;;5071281;28;20212;-61
2023/01/08 03:12:56;;;;;;;58.33;23.97;;;7.20;99.90;;;;;;5069682;28;20201;-61
2023/01/08 03:15:28;;;;;;;66.13;27.23;;;7.20;99.90;;;;;;5065653;28;20196;-61
2023/01/08 03:18:00;;;;;;;59.87;24.07;;;7.20;99.90;;;;;;5069140;28;20665;-60
2023/01/08 03:20:28;;;;;;;59.50;23.70;;;7.20;99.90;;;;;;5068802;28;20190;-62
2023/01/08 03:22:58;;;;;;;64.03;24.57;;;7.20;99.90;;;;;;5070237;28;20235;-61
2023/01/08 03:25:28;;;;;;;62.97;24.90;;;7.20;99.90;;;;;;5069655;28;20589;-61
2023/01/08 03:28:01;;;;;;;65.17;24.90;;;7.20;99.90;;;;;;5068884;28;20204;-61
2023/01/08 03:30:30;;;;;;;61.23;24.53;;;7.20;99.90;;;;;;5067560;28;20192;-61
2023/01/08 03:32:59;;;;;;;62.03;24.60;;;7.20;99.90;;;;;;5070052;28;20182;-61
2023/01/08 03:35:29;;;;;;;62.63;24.67;;;7.20;99.90;;;;;;5069677;28;20272;-61
2023/01/08 03:38:12;;;;;;;54.90;22.83;;;7.20;99.90;;;;;;5065901;28;20251;-61
2023/01/08 03:40:45;;;;;;;60.63;24.83;;;7.20;99.90;;;;;;5070411;28;20204;-61
2023/01/08 03:43:13;;;;;;;54.07;22.43;;;7.20;99.90;;;;;;5068494;28;20216;-61
2023/01/08 03:45:48;;;;;;;60.63;24.10;;;7.20;99.90;;;;;;5068538;28;20193;-61
2023/01/08 03:48:16;;;;;;;58.27;23.73;;;7.20;99.90;;;;;;5066936;28;20254;-61
2023/01/08 03:50:44;;;;;;;69.00;26.83;;;7.20;99.90;;;;;;5067669;28;20319;-61
2023/01/08 03:53:11;;;;;;;66.00;27.00;;;7.30;99.90;;;;;;5070647;28;20444;-61
2023/01/08 03:55:38;;;;;;;64.70;25.60;;;7.30;99.90;;;;;;5063898;28;20193;-61
2023/01/08 03:58:05;;;;;;;64.63;25.53;;;7.30;99.90;;;;;;5071402;28;20205;-61
2023/01/08 04:00:34;;;;;;;59.83;23.93;;;7.30;99.90;;;;;;5071361;28;20266;-61
2023/01/08 04:03:01;;;;;;;65.37;25.10;;;7.30;99.90;;;;;;5068512;28;20202;-61
2023/01/08 04:05:28;;;;;;;64.30;24.93;;;7.30;99.90;;;;;;5070091;28;20193;-61
2023/01/08 04:07:56;;;;;;;64.73;24.97;;;7.30;99.90;;;;;;5068786;28;20193;-61
2023/01/08 04:10:23;;;;;;;63.00;24.50;;;7.30;99.90;;;;;;5068174;28;20193;-61
2023/01/08 04:12:50;;;;;;;64.97;25.30;;;7.30;99.90;;;;;;5068313;28;20197;-61
2023/01/08 04:15:18;;;;;;;57.07;23.83;;;7.30;99.90;;;;;;5068804;28;20199;-61
2023/01/08 04:17:47;;;;;;;59.80;25.70;;;7.40;99.90;;;;;;5069267;28;20212;-61
2023/01/08 04:20:14;;;;;;;62.60;25.80;;;7.40;99.90;;;;;;5069562;28;20192;-61
2023/01/08 04:22:41;;;;;;;60.07;24.40;;;7.40;99.90;;;;;;5066698;28;20208;-61
2023/01/08 04:25:09;;;;;;;53.27;22.90;;;7.30;99.90;;;;;;5066755;28;20557;-61
2023/01/08 04:27:36;;;;;;;50.40;23.70;;;7.40;99.90;;;;;;5066756;28;20562;-61
2023/01/08 04:30:03;;;;;;;51.93;22.03;;;7.40;99.90;;;;;;5064489;28;20185;-62
2023/01/08 04:32:30;;;;;;;41.87;19.90;;;7.40;99.90;;;;;;5065116;28;20526;-61
2023/01/08 04:34:59;;;;;;;52.33;23.00;;;7.40;99.90;;;;;;5068653;28;20205;-61
2023/01/08 04:37:27;;;;;;;46.53;21.47;;;7.40;99.90;;;;;;5065580;28;20591;-62
2023/01/08 04:39:54;;;;;;;48.27;22.07;;;7.40;99.90;;;;;;5069503;28;20205;-61
2023/01/08 04:42:21;;;;;;;50.87;22.67;;;7.40;99.90;;;;;;5067782;28;20564;-62
2023/01/08 04:44:48;;;;;;;52.00;22.37;;;7.40;99.90;;;;;;5067571;28;20194;-62
2023/01/08 04:47:15;;;;;;;46.80;20.87;;;7.40;99.90;;;;;;5068912;28;20560;-62
2023/01/08 04:49:42;;;;;;;49.17;22.03;;;7.40;99.90;;;;;;5066859;28;20193;-62
2023/01/08 04:52:11;;;;;;;46.97;20.83;;;7.40;99.90;;;;;;5069547;28;20197;-62
2023/01/08 04:54:38;;;;;;;45.63;21.40;;;7.40;99.90;;;;;;5067257;28;20197;-62
2023/01/08 04:57:05;;;;;;;47.63;21.70;;;7.40;99.90;;;;;;5068107;28;20281;-62
2023/01/08 04:59:32;;;;;;;45.03;20.37;;;7.40;99.90;;;;;;5068447;28;20209;-61
2023/01/08 05:01:59;;;;;;;43.60;19.97;;;7.40;99.90;;;;;;5065101;28;20542;-62
2023/01/08 05:04:26;;;;;;;45.23;21.37;;;7.40;99.90;;;;;;5068054;28;20224;-61
2023/01/08 05:06:54;;;;;;;44.90;20.50;;;7.40;99.90;;;;;;5064937;28;20232;-61
2023/01/08 05:09:22;;;;;;;44.70;20.57;;;7.40;99.90;;;;;;5065977;28;20247;-61
2023/01/08 05:11:49;;;;;;;38.83;19.00;;;7.40;99.90;;;;;;5065067;28;20193;-61
2023/01/08 05:14:16;;;;;;;46.20;21.27;;;7.50;99.90;;;;;;5065629;28;20560;-61
2023/01/08 05:16:43;;;;;;;44.93;22.13;;;7.50;99.90;;;;;;5067941;28;20197;-62
2023/01/08 05:19:11;;;;;;;42.90;21.37;;;7.50;99.90;;;;;;5067164;28;20208;-62
2023/01/08 05:21:38;;;;;;;48.47;22.33;;;7.50;99.90;;;;;;5065151;28;20312;-62
2023/01/08 05:24:05;;;;;;;51.73;23.30;;;7.50;99.90;;;;;;5064196;28;20583;-61
2023/01/08 05:26:34;;;;;;;51.33;23.97;;;7.50;99.90;;;;;;5064448;28;20248;-61
2023/01/08 05:29:01;;;;;;;42.13;20.30;;;7.50;99.90;;;;;;5066410;28;20189;-62
2023/01/08 05:31:28;;;;;;;47.27;23.30;;;7.50;99.90;;;;;;5063131;28;20198;-61
2023/01/08 05:33:57;;;;;;;44.80;22.07;;;7.50;99.90;;;;;;5096769;28;20201;-61
2023/01/08 05:36:25;;;;;;;45.90;21.83;;;7.50;99.90;;;;;;5060138;28;20613;-61
2023/01/08 05:38:52;;;;;;;48.73;23.37;;;7.50;99.90;;;;;;5065772;28;20730;-61
2023/01/08 05:41:19;;;;;;;54.13;24.53;;;7.60;99.90;;;;;;5061046;28;20193;-61
2023/01/08 05:43:47;;;;;;;47.60;22.90;;;7.60;99.90;;;;;;5066013;28;20227;-61
2023/01/08 05:46:14;;;;;;;45.20;21.43;;;7.50;99.90;;;;;;5062812;28;20193;-62
2023/01/08 05:48:41;;;;;;;47.87;23.67;;;7.60;99.90;;;;;;5063698;28;20193;-61
2023/01/08 05:51:09;;;;;;;47.57;23.13;;;7.60;99.90;;;;;;5065641;28;20201;-61
2023/01/08 05:53:36;;;;;;;42.63;21.10;;;7.60;99.90;;;;;;5069066;28;20588;-62
2023/01/08 05:56:08;;;;;;;45.57;22.67;;;7.60;99.90;;;;;;5062345;28;20671;-61
2023/01/08 05:58:35;;;;;;;48.13;22.60;;;7.60;99.90;;;;;;5067475;28;20292;-62
2023/01/08 06:01:05;;;;;;;53.90;24.73;;;7.60;99.90;;;;;;5067263;28;20276;-62
2023/01/08 06:03:32;;;;;;;51.43;24.00;;;7.60;99.90;;;;;;5068539;28;20210;-62
2023/01/08 06:06:00;;;;;;;46.00;23.20;;;7.60;99.90;;;;;;5066824;28;20591;-62
2023/01/08 06:08:28;;;;;;;49.10;23.57;;;7.60;99.90;;;;;;5066696;28;20224;-61
2023/01/08 06:10:58;;;;;;;50.37;23.50;;;7.60;99.90;;;;;;5069129;28;20850;-61
2023/01/08 06:13:25;;;;;;;48.50;22.80;;;7.60;99.90;;;;;;5063477;28;20218;-62
2023/01/08 06:15:52;;;;;;;48.03;23.67;;;7.50;99.90;;;;;;5063387;28;20571;-61
2023/01/08 06:18:21;;;;;;;45.03;22.93;;;7.50;99.90;;;;;;5065463;28;20201;-61
2023/01/08 06:20:48;;;;;;;42.13;21.43;;;7.50;99.90;;;;;;5064463;28;20560;-61
2023/01/08 06:23:15;;;;;;;49.93;23.93;;;7.50;99.90;;;;;;5066764;28;20209;-61
2023/01/08 06:25:53;;;;;;;48.87;23.47;;;7.50;99.90;;;;;;5063428;28;20566;-61
2023/01/08 06:28:20;;;;;;;45.77;22.27;;;7.50;99.90;;;;;;5065918;28;20312;-61
2023/01/08 06:30:50;;;;;;;55.30;24.23;;;7.50;99.90;;;;;;5064206;28;20209;-62
2023/01/08 06:33:18;;;;;;;49.30;23.20;;;7.50;99.90;;;;;;5064072;28;20537;-60
2023/01/08 06:35:46;;;;;;;45.90;21.77;;;7.50;99.90;;;;;;5068906;28;20193;-61
2023/01/08 06:38:13;;;;;;;45.73;21.67;;;7.50;99.90;;;;;;5070161;28;20200;-61
2023/01/08 06:40:40;;;;;;;49.00;22.70;;;7.50;99.90;;;;;;5069595;28;20189;-60
2023/01/08 06:43:08;;;;;;;53.10;24.13;;;7.50;99.90;;;;;;5068132;28;20211;-61
2023/01/08 06:45:35;;;;;;;49.67;23.53;;;7.50;99.90;;;;;;5069323;28;21216;-61
2023/01/08 06:48:02;;;;;;;55.23;24.13;;;7.50;99.90;;;;;;5067443;28;20201;-61
2023/01/08 06:50:30;;;;;;;55.70;24.20;;;7.50;99.90;;;;;;5066488;28;20200;-61
2023/01/08 06:52:58;;;;;;;47.93;23.40;;;7.50;99.90;;;;;;5068581;28;20200;-60
2023/01/08 06:55:26;;;;;;;53.00;23.90;;;7.40;99.90;;;;;;5064459;28;20201;-60
2023/01/08 06:57:54;;;;;;;49.43;23.40;;;7.40;99.90;;;;;;5073140;28;20671;-61
2023/01/08 07:00:22;;;;;;;56.43;23.87;;;7.40;99.90;;;;;;5069809;28;20216;-61
2023/01/08 07:02:49;;;;;;;52.17;24.23;;;7.40;99.90;;;;;;5070521;28;20280;-61
2023/01/08 07:05:17;;;;;;;58.33;24.83;;;7.40;99.90;;;;;;5069224;28;20602;-61
2023/01/08 07:07:44;;;;;;;56.80;25.37;;;7.40;99.90;;;;;;5071493;28;20225;-60
2023/01/08 07:10:13;;;;;;;59.97;27.10;;;7.40;99.90;;;;;;5069723;28;20197;-60
2023/01/08 07:12:40;;;;;;;58.57;25.00;;;7.40;99.90;;;;;;5069200;28;20196;-61
2023/01/08 07:15:08;;;;;;;53.03;24.50;;;7.40;99.90;;;;;;5067899;28;21122;-61
2023/01/08 07:17:35;;;;;;;57.70;26.00;;;7.40;99.90;;;;;;5068458;28;20197;-61
2023/01/08 07:20:03;;;;;;;49.57;23.70;;;7.40;99.90;;;;;;5065540;28;20861;-61
2023/01/08 07:22:30;;;;;;;52.23;24.20;;;7.40;99.90;;;;;;5070098;28;20354;-61
2023/01/08 07:24:57;;;;;;;57.47;26.07;;;7.40;99.90;;;;;;5064448;28;20290;-61
2023/01/08 07:27:25;;;;;;;47.07;22.50;;;7.30;99.90;;;;;;5066673;28;20552;-61
2023/01/08 07:29:54;;;;;;;51.57;24.40;;;7.30;99.90;;;;;;5068371;28;20200;-61
2023/01/08 07:32:21;;;;;;;54.67;22.73;;;7.30;99.90;;;;;;5068235;28;20185;-61
2023/01/08 07:34:49;;;;;;;52.97;24.60;;;7.30;99.90;;;;;;5067662;28;20564;-61
2023/01/08 07:37:16;;;;;;;48.47;22.70;;;7.30;99.90;;;;;;5067129;28;20193;-61
2023/01/08 07:39:43;;;;;;;49.10;24.63;;;7.30;99.90;;;;;;5068301;28;20568;-60
2023/01/08 07:42:10;;;;;;;51.37;23.17;;;7.20;99.90;;;;;;5068151;28;20583;-60
2023/01/08 07:44:38;;;;;;;48.77;23.87;;;7.30;99.90;;;;;;5062317;28;20212;-60
2023/01/08 07:47:05;;;;;;;49.63;24.70;;;7.20;99.90;;;;;;5098085;28;20705;-61
2023/01/08 07:49:32;;;;;;;47.13;23.57;;;7.30;99.90;;;;;;5066337;28;20306;-61
2023/01/08 07:51:59;;;;;;;51.27;24.10;;;7.30;99.90;;;;;;5067081;28;20196;-60
2023/01/08 07:54:27;;;;;;;49.37;24.23;;;7.20;99.90;;;;;;5065496;28;20196;-61
2023/01/08 07:56:54;;;;;;;47.43;24.30;;;7.20;99.90;;;;;;5068147;28;20655;-61
2023/01/08 07:59:21;;;;;;;51.13;24.77;;;7.20;99.90;;;;;;5068008;28;20564;-61
2023/01/08 08:01:50;;;;;;;51.83;25.90;;;7.20;99.90;;;;;;5069032;28;20197;-61
2023/01/08 08:04:18;;;;;;;53.60;25.17;;;7.20;99.90;;;;;;5068207;28;20542;-61
2023/01/08 08:06:45;;;;;;;50.93;25.10;;;7.20;99.90;;;;;;5068287;28;20283;-61
2023/01/08 08:09:12;;;;;;;52.03;26.33;;;7.20;99.90;;;;;;5069117;28;20204;-61
2023/01/08 08:11:39;;;;;;;47.63;24.87;;;7.10;99.90;;;;;;5065893;28;20193;-61
2023/01/08 08:14:06;;;;;;;46.60;23.63;;;7.10;99.90;;;;;;5069046;28;20200;-60
2023/01/08 08:16:33;;;;;;;46.17;23.77;;;7.00;99.90;;;;;;5066838;28;20204;-60
2023/01/08 08:19:02;;;;;;;47.27;24.93;;;7.10;99.90;;;;;;5066236;28;20197;-60
2023/01/08 08:21:29;;;;;;;45.63;24.07;;;6.80;99.90;;;;;;5065921;28;20192;-60
2023/01/08 08:23:56;;;;;;;46.17;23.57;;;7.00;99.90;;;;;;5066845;28;20222;-60
2023/01/08 08:26:24;;;;;;;47.23;24.43;;;7.00;99.90;;;;;;5066170;28;20208;-60
2023/01/08 08:28:51;;;;;;;47.10;24.83;;;7.00;99.90;;;;;;5069585;28;20568;-61
2023/01/08 08:31:18;;;;;;;52.17;25.30;;;7.00;99.90;;;;;;5065867;28;20200;-61
2023/01/08 08:33:45;;;;;;;42.57;23.03;;;7.00;99.90;;;;;;5068289;28;20737;-61
2023/01/08 08:36:14;;;;;;;45.30;23.37;;;7.00;99.90;;;;;;5063888;28;20201;-61
2023/01/08 08:38:41;;;;;;;46.13;24.53;;;7.00;99.90;;;;;;5069738;28;20188;-61
2023/01/08 08:41:08;;;;;;;45.13;23.50;;;7.00;99.90;;;;;;5065679;28;20192;-61
2023/01/08 08:43:35;;;;;;;40.83;21.87;;;7.00;99.90;;;;;;5065240;28;20576;-60
2023/01/08 08:46:02;;;;;;;42.57;22.57;;;7.00;99.90;;;;;;5064190;28;20188;-60
2023/01/08 08:48:29;;;;;;;42.80;23.10;;;7.00;99.90;;;;;;5065235;28;20217;-60
2023/01/08 08:50:57;;;;;;;44.90;23.10;;;7.00;99.90;;;;;;5067495;28;20193;-61
2023/01/08 08:53:25;;;;;;;46.13;23.23;;;7.00;99.90;;;;;;5065074;28;20218;-60
2023/01/08 08:55:52;;;;;;;40.63;22.93;;;7.00;99.90;;;;;;5064048;28;20561;-59
2023/01/08 08:58:19;;;;;;;44.37;22.87;;;7.00;99.90;;;;;;5069263;28;20203;-60
2023/01/08 09:00:46;;;;;;;42.20;22.10;;;7.00;99.90;;;;;;5068356;28;20224;-59
2023/01/08 09:03:15;;;;;;;39.43;20.17;;;7.00;99.90;;;;;;5067532;28;20279;-60
2023/01/08 09:05:42;;;;;;;46.53;22.10;;;7.00;99.90;;;;;;5065354;28;20208;-60
2023/01/08 09:08:10;;;;;;;40.40;22.13;;;7.00;99.90;;;;;;5066014;28;20588;-59
2023/01/08 09:10:41;;;;;;;39.47;21.23;;;7.00;99.90;;;;;;5063559;28;20593;-60
2023/01/08 09:13:08;;;;;;;46.17;22.90;;;7.10;99.90;;;;;;5064742;28;20667;-59
2023/01/08 09:15:37;;;;;;;40.73;21.67;;;7.10;99.90;;;;;;5065438;28;20185;-59
2023/01/08 09:18:05;;;;;;;42.13;21.53;;;7.10;99.90;;;;;;5064694;28;20205;-59
2023/01/08 09:20:32;;;;;;;46.30;23.23;;;7.10;99.90;;;;;;5063601;28;20273;-59
2023/01/08 09:23:00;;;;;;;40.90;21.83;;;7.10;99.90;;;;;;5066336;28;20565;-60
2023/01/08 09:25:27;;;;;;;44.43;22.57;;;7.10;99.90;;;;;;5065335;28;20212;-61
2023/01/08 09:28:00;;;;;;;41.13;21.80;;;7.10;99.90;;;;;;5065100;28;20212;-59
2023/01/08 09:30:28;;;;;;;47.83;23.07;;;7.10;99.90;;;;;;5064083;28;20198;-59
2023/01/08 09:32:57;;;;;;;45.73;22.43;;;7.10;99.90;;;;;;5065331;28;20198;-59
2023/01/08 09:35:24;;;;;;;41.13;21.00;;;7.10;99.90;;;;;;5064868;28;20270;-60
2023/01/08 09:37:52;;;;;;;43.97;21.13;;;7.10;99.90;;;;;;5065298;28;20564;-59
2023/01/08 09:40:20;;;;;;;47.20;23.00;;;7.10;99.90;;;;;;5063812;28;20202;-59
2023/01/08 09:42:53;;;;;;;44.50;21.77;;;7.10;99.90;;;;;;5064952;28;20200;-59
2023/01/08 09:45:26;;;;;;;41.33;20.97;;;7.10;99.90;;;;;;5066007;28;20223;-60
2023/01/08 09:47:54;;;;;;;45.87;21.60;;;7.10;99.90;;;;;;5062600;28;20196;-60
2023/01/08 09:50:23;;;;;;;38.23;19.47;;;7.10;99.90;;;;;;5060849;28;20201;-61
2023/01/08 09:52:50;;;;;;;42.73;20.80;;;7.10;99.90;;;;;;5065544;28;20197;-60
2023/01/08 09:55:17;;;;;;;47.33;22.20;;;7.10;99.90;;;;;;5065917;28;20372;-59
2023/01/08 09:57:45;;;;;;;40.93;20.63;;;7.10;99.90;;;;;;5069608;28;20196;-59
2023/01/08 10:00:16;;;;;;;42.23;20.90;;;7.10;99.90;;;;;;5066935;28;20551;-59
2023/01/08 10:02:45;;;;;;;44.80;22.07;;;7.10;99.90;;;;;;5063002;28;20198;-59
2023/01/08 10:05:14;;;;;;;43.43;20.60;;;7.10;99.90;;;;;;5064390;28;20201;-60
2023/01/08 10:07:41;;;;;;;38.97;19.20;;;7.10;99.90;;;;;;5067588;28;20225;-59
2023/01/08 10:10:18;;;;;;;50.97;22.60;;;7.10;99.90;;;;;;5069260;28;20205;-60
2023/01/08 10:12:46;;;;;;;45.73;21.23;;;7.10;99.90;;;;;;5071774;28;20206;-61
2023/01/08 10:15:15;;;;;;;51.80;23.03;;;7.10;99.90;;;;;;5068485;28;20208;-60
2023/01/08 10:17:49;;;;;;;46.93;22.60;;;7.10;99.90;;;;;;5070826;28;20201;-60
2023/01/08 10:20:19;;;;;;;44.13;21.60;;;7.10;99.90;;;;;;5070370;28;20272;-61
2023/01/08 10:22:47;;;;;;;48.40;23.73;;;7.10;99.90;;;;;;5069086;28;20211;-60
2023/01/08 10:25:17;;;;;;;52.63;23.47;;;7.00;99.90;;;;;;5070312;28;20213;-61
2023/01/08 10:27:48;;;;;;;53.13;24.70;;;7.10;99.90;;;;;;5070396;28;20364;-60
2023/01/08 10:30:17;;;;;;;53.13;24.70;;;7.00;99.90;;;;;;5069439;28;20679;-60
2023/01/08 10:32:51;;;;;;;54.27;24.73;;;7.10;99.90;;;;;;5067737;28;20204;-60
2023/01/08 10:35:20;;;;;;;62.37;27.77;;;7.10;99.90;;;;;;5071140;28;20641;-61
2023/01/08 10:37:49;;;;;;;64.07;29.13;;;7.10;99.90;;;;;;5071130;28;20676;-60
2023/01/08 10:40:28;;;;;;;54.07;24.67;;;7.10;99.90;;;;;;5069580;28;20208;-60
2023/01/08 10:42:58;;;;;;;58.23;25.10;;;7.10;99.90;;;;;;5071319;28;20223;-60
2023/01/08 10:45:27;;;;;;;52.03;22.83;;;7.10;99.90;;;;;;5071473;28;20225;-60
2023/01/08 10:48:00;;;;;;;55.63;24.70;;;7.10;99.90;;;;;;5067930;28;20247;-61
2023/01/08 10:50:29;;;;;;;58.50;25.13;;;7.10;99.90;;;;;;5071486;28;20182;-61
2023/01/08 10:52:58;;;;;;;54.03;23.97;;;7.10;99.90;;;;;;5068435;28;20242;-60
2023/01/08 10:55:28;;;;;;;55.57;23.33;;;7.10;99.90;;;;;;5097314;28;20197;-60
2023/01/08 10:58:00;;;;;;;49.83;23.23;;;7.10;99.90;;;;;;5068545;28;20206;-60
2023/01/08 11:00:29;;;;;;;44.67;20.87;;;7.10;99.90;;;;;;5071180;28;20188;-60
2023/01/08 11:03:00;;;;;;;51.27;24.97;;;7.10;99.90;;;;;;5065108;28;20271;-59
2023/01/08 11:05:33;;;;;;;54.90;24.40;;;7.00;99.90;;;;;;5069705;28;20257;-58
2023/01/08 11:08:04;;;;;;;46.03;22.47;;;7.00;99.90;;;;;;5070449;28;20196;-60
2023/01/08 11:10:34;;;;;;;51.20;23.53;;;7.00;99.90;;;;;;5069652;28;20199;-61
2023/01/08 11:13:04;;;;;;;51.87;23.17;;;7.00;99.90;;;;;;5068851;28;20674;-61
2023/01/08 11:15:37;;;;;;;42.43;20.70;;;7.00;99.90;;;;;;5070804;28;20195;-61
2023/01/08 11:18:18;;;;;;;44.10;21.60;;;7.00;99.90;;;;;;5069356;28;20276;-61
2023/01/08 11:20:46;;;;;;;45.67;21.23;;;7.00;99.90;;;;;;5068747;28;20620;-61
2023/01/08 11:23:18;;;;;;;46.77;21.47;;;7.00;99.90;;;;;;5070866;28;20191;-60
2023/01/08 11:26:00;;;;;;;48.67;22.77;;;7.00;99.90;;;;;;5068371;28;20703;-60
2023/01/08 11:28:33;;;;;;;44.73;22.33;;;7.10;99.90;;;;;;5070201;28;20555;-59
2023/01/08 11:31:10;;;;;;;50.27;24.40;;;7.10;99.90;;;;;;5069698;28;20197;-60
2023/01/08 11:33:40;;;;;;;49.30;22.53;;;7.10;99.90;;;;;;5068090;28;20194;-59
2023/01/08 11:36:13;;;;;;;50.43;22.80;;;7.10;99.90;;;;;;5068545;28;20192;-59
2023/01/08 11:38:40;;;;;;;48.53;24.03;;;7.10;99.90;;;;;;5066367;28;20204;-59
2023/01/08 11:41:21;;;;;;;49.37;20.87;;;7.10;99.90;;;;;;5066509;28;20254;-59
2023/01/08 11:44:02;;;;;;;47.63;21.00;;;7.10;99.90;;;;;;5067317;28;20203;-60
2023/01/08 11:46:38;;;;;;;48.47;23.03;;;7.10;99.90;;;;;;5067646;28;20209;-60
2023/01/08 11:49:22;;;;;;;51.60;24.10;;;7.20;99.90;;;;;;5066215;28;20207;-60
2023/01/08 11:52:04;;;;;;;48.63;22.93;;;7.20;99.90;;;;;;5067773;28;20201;-61
2023/01/08 11:54:54;;;;;;;41.67;20.57;;;7.20;99.90;;;;;;5068862;28;20193;-61
2023/01/08 11:57:34;;;;;;;48.17;22.73;;;7.10;99.90;;;;;;5067491;28;20185;-61
2023/01/08 12:00:17;;;;;;;52.13;22.97;;;7.10;99.90;;;;;;5064904;28;20200;-61
2023/01/08 12:02:53;;;;;;;49.87;22.43;;;7.10;99.90;;;;;;5064302;28;20750;-60
2023/01/08 12:05:30;;;;;;;46.77;22.40;;;7.20;99.90;;;;;;5064812;28;20201;-61
2023/01/08 12:08:05;;;;;;;49.63;22.67;;;7.90;99.90;;;;;;5068475;28;20189;-61
2023/01/08 12:10:51;;;;;;;46.57;20.80;;;7.20;99.90;;;;;;5069363;28;20204;-60
2023/01/08 12:13:44;;;;;;;52.03;24.57;;;7.20;99.90;;;;;;5067974;28;20250;-60
2023/01/08 12:16:38;;;;;;;44.00;21.40;;;7.20;99.90;;;;;;5066370;28;20181;-60
2023/01/08 12:19:23;;;;;;;46.13;22.47;;;7.20;99.90;;;;;;5064374;28;20215;-59
2023/01/08 12:22:10;;;;;;;45.83;21.73;;;7.20;99.90;;;;;;5069203;28;20197;-60
2023/01/08 12:25:01;;;;;;;45.57;21.57;;;7.20;99.90;;;;;;5067019;28;20193;-61
2023/01/08 12:27:39;;;;;;;41.00;20.13;;;7.20;99.90;;;;;;5066810;28;20663;-61
2023/01/08 12:30:17;;;;;;;43.77;21.43;;;7.30;99.90;;;;;;5066098;28;20243;-61
2023/01/08 12:32:52;;;;;;;47.73;22.20;;;7.30;99.90;;;;;;5066259;28;20193;-61
2023/01/08 12:35:24;;;;;;;46.27;20.30;;;7.30;99.90;;;;;;5064942;28;20196;-60
2023/01/08 12:37:57;;;;;;;40.20;19.83;;;7.30;99.90;;;;;;5066087;28;20194;-60
2023/01/08 12:40:32;;;;;;;36.80;18.97;;;7.30;99.90;;;;;;5065471;28;20197;-61
2023/01/08 12:43:04;;;;;;;42.73;19.87;;;7.30;99.90;;;;;;5067407;28;20188;-61
2023/01/08 12:45:40;;;;;;;36.83;19.10;;;7.30;99.90;;;;;;5064956;28;20208;-61
2023/01/08 12:48:09;;;;;;;34.67;18.93;;;7.30;99.90;;;;;;5065088;28;20297;-61